EIN6374 EIDW-EDDH
Flight info
| Callsign | EIN6374 |
|---|---|
| Flight time | N/A |
| Altitude | 33000 |
| Route | ENDEQ3J ENDEQ Q36 ALAVA Z195 MALUD UL975 WAL M16 DOLAS L603 LAMSO DCT PETIK DCT ANDIK DCT GASTU DCT OSTOR/N0414F230 T904 RIBSO RIBSO3P |
| Aircraft | A320/M-SDE3FGHIRWY/LB1 |
Departure
| Time | 2026-05-04 17:07 |
|---|---|
| Airport | Dublin Airport (EIDW) |
Arrival
| Time | N/A |
|---|---|
| Airport | Hamburg Helmut Schmidt Airport (EDDH) |
| Time | Latitude | Longitude | Altitude | Speed | Heading |
|---|---|---|---|---|---|
| 2026-05-04 16:53 | 53.42587 | -6.24504 | 211 ft | 0 kts | 306° |
| 2026-05-04 16:58 | 53.42584 | -6.24497 | 211 ft | 3 kts | 305° |
| 2026-05-04 16:59 | 53.42575 | -6.24431 | 211 ft | 2 kts | 225° |
| 2026-05-04 17:00 | 53.42575 | -6.24430 | 211 ft | 0 kts | 223° |
| 2026-05-04 17:01 | 53.42552 | -6.24446 | 216 ft | 12 kts | 198° |
| 2026-05-04 17:01 | 53.42402 | -6.24679 | 211 ft | 16 kts | 229° |
| 2026-05-04 17:02 | 53.42246 | -6.24973 | 211 ft | 18 kts | 225° |
| 2026-05-04 17:02 | 53.42213 | -6.25372 | 216 ft | 19 kts | 275° |
| 2026-05-04 17:03 | 53.42225 | -6.25593 | 211 ft | 20 kts | 275° |
| 2026-05-04 17:03 | 53.42237 | -6.25828 | 214 ft | 21 kts | 275° |
| 2026-05-04 17:03 | 53.42266 | -6.26325 | 213 ft | 22 kts | 274° |
| 2026-05-04 17:04 | 53.42294 | -6.26854 | 214 ft | 23 kts | 276° |
| 2026-05-04 17:04 | 53.42326 | -6.27411 | 211 ft | 25 kts | 274° |
| 2026-05-04 17:05 | 53.42358 | -6.27995 | 211 ft | 25 kts | 276° |
| 2026-05-04 17:05 | 53.42390 | -6.28579 | 211 ft | 26 kts | 275° |
| 2026-05-04 17:06 | 53.42369 | -6.29060 | 210 ft | 14 kts | 208° |
| 2026-05-04 17:06 | 53.42269 | -6.29058 | 209 ft | 15 kts | 150° |
| 2026-05-04 17:07 | 53.42188 | -6.28003 | 212 ft | 104 kts | 95° |
| 2026-05-04 17:07 | 53.42136 | -6.27066 | 214 ft | 138 kts | 95° |
| 2026-05-04 17:07 | 53.41991 | -6.24561 | 397 ft | 176 kts | 97° |
| 2026-05-04 17:07 | 53.41872 | -6.22542 | 1116 ft | 172 kts | 96° |
| 2026-05-04 17:08 | 53.41762 | -6.20533 | 1718 ft | 179 kts | 93° |
| 2026-05-04 17:08 | 53.41514 | -6.15837 | 2254 ft | 226 kts | 92° |
| 2026-05-04 17:08 | 53.41366 | -6.13067 | 2597 ft | 250 kts | 92° |
| 2026-05-04 17:09 | 53.41203 | -6.10079 | 3219 ft | 262 kts | 92° |
| 2026-05-04 17:09 | 53.41032 | -6.07009 | 3993 ft | 267 kts | 93° |
| 2026-05-04 17:09 | 53.40913 | -6.03871 | 4777 ft | 272 kts | 88° |
| 2026-05-04 17:10 | 53.41247 | -5.97476 | 6367 ft | 279 kts | 82° |
| 2026-05-04 17:10 | 53.42021 | -5.87692 | 8643 ft | 288 kts | 82° |
| 2026-05-04 17:11 | 53.42265 | -5.84341 | 9408 ft | 291 kts | 82° |
| 2026-05-04 17:11 | 53.42501 | -5.80953 | 10160 ft | 294 kts | 83° |
| 2026-05-04 17:11 | 53.43005 | -5.73654 | 10633 ft | 336 kts | 83° |
| 2026-05-04 17:12 | 53.43274 | -5.69713 | 11166 ft | 343 kts | 83° |
| 2026-05-04 17:12 | 53.43804 | -5.61718 | 12468 ft | 351 kts | 83° |
| 2026-05-04 17:13 | 53.44538 | -5.49313 | 14362 ft | 362 kts | 89° |
| 2026-05-04 17:14 | 53.44244 | -5.35893 | 15228 ft | 396 kts | 92° |
| 2026-05-04 17:14 | 53.44119 | -5.31261 | 15781 ft | 399 kts | 92° |
| 2026-05-04 17:14 | 53.43871 | -5.21974 | 16897 ft | 403 kts | 92° |
| 2026-05-04 17:15 | 53.43747 | -5.17260 | 17461 ft | 406 kts | 91° |
| 2026-05-04 17:15 | 53.43476 | -5.07745 | 18495 ft | 411 kts | 92° |
| 2026-05-04 17:16 | 53.43162 | -4.98130 | 19422 ft | 414 kts | 92° |
| 2026-05-04 17:16 | 53.42674 | -4.83556 | 20721 ft | 420 kts | 92° |
| 2026-05-04 17:17 | 53.42511 | -4.78660 | 21122 ft | 422 kts | 92° |
| 2026-05-04 17:17 | 53.42029 | -4.63893 | 22287 ft | 428 kts | 92° |
| 2026-05-04 17:18 | 53.41876 | -4.58913 | 22673 ft | 429 kts | 92° |
| 2026-05-04 17:18 | 53.41565 | -4.48881 | 23380 ft | 433 kts | 92° |
| 2026-05-04 17:19 | 53.41248 | -4.38771 | 24007 ft | 436 kts | 92° |
| 2026-05-04 17:19 | 53.40915 | -4.28597 | 24593 ft | 439 kts | 92° |
| 2026-05-04 17:20 | 53.40574 | -4.18430 | 25140 ft | 441 kts | 92° |
| 2026-05-04 17:20 | 53.40218 | -4.08150 | 25666 ft | 443 kts | 92° |
| 2026-05-04 17:20 | 53.40036 | -4.02997 | 25940 ft | 443 kts | 92° |
| 2026-05-04 17:21 | 53.39666 | -3.92665 | 26424 ft | 445 kts | 92° |
| 2026-05-04 17:21 | 53.39288 | -3.82293 | 26865 ft | 447 kts | 92° |
| 2026-05-04 17:22 | 53.39095 | -3.77093 | 27070 ft | 448 kts | 92° |
| 2026-05-04 17:22 | 53.38897 | -3.71894 | 27347 ft | 447 kts | 92° |